• Join FlightAware (Why Join?)
  • Login
  • US Flag 
04:05PM EST


 

Airport Tracker/Info


-or-


 

Live Flight TrackerFlight Track Log ✈ DAL6155 ✈ 16-Jul-2014 ✈ KDTW - KLEX

Flight Track Log - Related Links

Times and Time Zones

All times are in EDT time to prevent confusion due to time zone crossing. See the DAL6155 flight status page for this flight to view local times or setup timezone preferences in your user account.

Time Position Orientation Groundspeed Altitude Reporting Facility
EDT Latitude Longitude Course Direction KTS MPH feet Rate Location/Type
03:47PM 42.2008 -83.3550 180° South 169 194 1,200  Level Cleveland Center
03:48PM 42.1522 -83.3681 191° South 198 228 3,000 1,740 Climbing Cleveland Center
03:49PM 42.0836 -83.3858 166° South 240 276 4,900 2,220 Climbing Cleveland Center
03:50PM 42.0528 -83.3343 166° South  Level FlightAware Approximate
03:51PM 41.9975 -83.4011 188° South 273 314 7,700  Level Cleveland Center
03:52PM 41.7255 -83.5082 180° South  Level Estimated
03:52PM 41.9153 -83.3878 173° South 288 331 10,000  Level Cleveland Center
03:53PM 41.6281 -83.5389 180° South  Level Estimated
03:53PM 41.8219 -83.3697 172° South 318 366 11,200  Level Cleveland Center
03:54PM 41.7247 -83.3525 172° South 345 397 13,100 1,560 Climbing Cleveland Center
03:56PM 41.5292 -83.3378 177° South 354 407 16,200 1,140 Climbing Cleveland Center
03:57PM 41.4344 -83.3875 201° Southwest 368 423 16,800 780 Climbing Cleveland Center
03:58PM 41.3397 -83.4444 204° Southwest 371 427 17,900 1,020 Climbing Cleveland Center
03:59PM 41.2236 -83.5106 203° Southwest 374 430 19,000 900 Climbing Cleveland Center
04:00PM 41.1236 -83.5672 203° Southwest 384 442 19,800 720 Climbing Cleveland Center
04:01PM 41.0189 -83.6278 204° Southwest 396 456 20,500 720 Climbing Cleveland Center
04:02PM 40.9158 -83.6886 204° Southwest 404 465 21,300 720 Climbing Cleveland Center
04:03PM 40.8106 -83.7464 203° Southwest 406 467 22,100 780 Climbing Cleveland Center
04:04PM 40.7083 -83.8058 204° Southwest 406 467 23,000 840 Climbing Cleveland Center
04:05PM 40.5844 -83.8756 203° Southwest 405 466 23,900 720 Climbing Cleveland Center
04:06PM 40.4589 -83.9472 203° Southwest 406 467 24,700 600 Climbing Indianapolis Center
04:07PM 40.3561 -84.0064 204° Southwest 406 467 25,400 600 Climbing Indianapolis Center
04:08PM 40.2531 -84.0628 203° Southwest 406 467 26,000 240 Climbing Indianapolis Center
04:09PM 40.1239 -84.1303 202° Southwest 413 475 26,000  Level Indianapolis Center
04:10PM 40.0133 -84.1883 202° Southwest 424 488 26,000  Level Indianapolis Center
04:11PM 39.9031 -84.2458 202° Southwest 425 489 26,000  Level Indianapolis Center
04:12PM 39.7917 -84.3047 202° Southwest 430 495 26,000  Level Indianapolis Center
04:14PM 39.6792 -84.3625 202° Southwest 432 497 26,000  Level Indianapolis Center
04:15PM 39.5450 -84.4333 202° Southwest 433 498 26,000 -240 Level Indianapolis Center
04:16PM 39.4317 -84.4897 201° Southwest 434 499 25,600 -720 Descending Indianapolis Center
04:17PM 39.3194 -84.5492 202° Southwest 436 502 24,600 -1,560 Descending Indianapolis Center
04:18PM 39.2086 -84.6064 202° Southwest 435 501 22,400 -2,640 Descending Indianapolis Center
04:19PM 39.0997 -84.6594 201° Southwest 426 490 19,100 -3,240 Descending Indianapolis Center
04:19PM 39.0000 -84.7000 198° South 402 463 16,500 -3,180 Descending Cincinnati TRACON
04:20PM 38.9167 -84.7167 189° South 387 445 14,400 -1,980 Descending Cincinnati TRACON
04:21PM 38.8736 -84.7006 164° South 399 459 14,000 -1,080 Descending Indianapolis Center
04:22PM 38.7664 -84.6750 169° South 396 456 12,700 -1,380 Descending Indianapolis Center
04:23PM 38.6608 -84.6503 170° South 391 450 11,200 -1,260 Descending Indianapolis Center
04:24PM 38.5517 -84.6217 168° South 380 437 10,100 -600 Descending Indianapolis Center
04:25PM 38.4608 -84.5997 169° South 348 400 10,000 -900 Descending Indianapolis Center
04:26PM 38.3756 -84.5903 175° South 284 327 8,300 -1,800 Descending Indianapolis Center
04:27PM 38.3061 -84.6125 194° South 266 306 6,400 -1,800 Descending Indianapolis Center
04:28PM 38.2353 -84.6336 193° South 262 302 4,700 -1,200 Descending Indianapolis Center
04:29PM 38.1647 -84.6569 195° South 262 302 4,000 -540 Descending Indianapolis Center
04:30PM 38.0944 -84.6794 194° South 262 302 3,700 -660 Descending Indianapolis Center
04:31PM 38.0300 -84.7017 195° South 255 293 2,700 -1,020 Descending Indianapolis Center